Terminal Aerodrome Forecast
Issued by NWS

Home | Current Version | Previous Version | Text Only | Print | Product List | Glossary On
Versions: 1 2 3 4 5 6 7 8 9 10 11 12 13 14 15 16 17 18 19 20 21 22 23 24 25 26 27 28 29 30 31 32 33 34 35 36 37 38 39 40 41 42
723
FTUS43 KPAH 200759 AAA
TAFOWB
TAF AMD
KOWB 200759Z 2008/2106 23007KT P6SM FEW060 OVC110
      TEMPO 2008/2010 1SM SHRA OVC002
     FM201000 21005KT 2SM BR OVC005
     FM201800 21005KT 6SM BR OVC010
     FM210300 18005KT 6SM BR OVC012=

USA.gov is the U.S. government's official web portal to all federal, state and local government web resources and services.